Latest Weather Observations for Yarrawonga

IDN60801

Issued at 9:12 pm EST Thursday 22 August 2019 (issued every 10 minutes, with the page automatically refreshed every 10 minutes)

About weather observations | Map of weather stations | Latest weather observations for NSW | Other Formats
Station Details ID: 081124 Name: YARRAWONGA Lat: -36.03 Lon: 146.03 Height: 128.9 m
Data from the previous 72 hours. | See also: Recent months at Yarrawonga
Date/Time
EST
Temp
°C
App
Temp
°C
Dew
Point
°C
Rel
Hum
%
Delta-T
°C
Wind Press
QNH
hPa
Press
MSL
hPa
Rain since
9am
mm
Dir  Spd
km/h
Gust
km/h
Spd
kts
Gust
kts
22/09:00pm 6.6 1.3 3.0 78 1.5 SW 20 26 11 14 1025.3 1025.5 0.0
22/08:30pm 6.3 1.2 3.3 81 1.3 SW 19 22 10 12 1025.1 1025.3 0.0
22/08:00pm 6.8 1.2 3.4 79 1.4 SW 22 28 12 15 1025.1 1025.3 0.0
22/07:30pm 6.8 2.5 3.4 79 1.4 WSW 15 19 8 10 1024.9 1025.1 0.0
22/07:00pm 7.6 2.0 3.5 75 1.7 SW 22 28 12 15 1024.4 1024.6 0.0
22/06:30pm 8.1 4.2 3.6 73 1.9 SW 13 19 7 10 1024.3 1024.5 0.0
22/06:00pm 8.9 4.0 4.3 73 2.0 SW 19 22 10 12 1023.8 1024.0 0.0
22/05:30pm 9.9 5.5 4.7 70 2.3 SW 17 24 9 13 1023.3 1023.5 0.0
22/05:00pm 11.3 5.7 5.2 66 2.8 SW 24 32 13 17 1022.7 1023.0 0.0
22/04:30pm 12.0 5.6 5.0 62 3.2 SW 28 35 15 19 1022.4 1022.7 0.0
22/04:00pm 12.8 5.6 4.8 58 3.7 SW 32 41 17 22 1022.2 1022.5 0.0
22/03:30pm 13.0 5.5 4.7 57 3.8 SSW 33 48 18 26 1021.8 1022.0 0.0
22/03:00pm 13.5 5.4 5.4 58 3.8 SSW 37 50 20 27 1021.5 1021.7 0.0
22/02:30pm 13.4 6.3 5.6 59 3.7 SW 32 43 17 23 1021.7 1021.9 0.0
22/02:00pm 13.7 6.4 4.6 54 4.2 SW 32 43 17 23 1021.3 1021.5 0.0
22/01:30pm 13.9 6.1 5.0 55 4.2 SSW 35 50 19 27 1021.5 1021.7 0.0
22/01:00pm 13.1 4.8 4.0 54 4.1 SW 37 48 20 26 1021.4 1021.6 0.0
22/12:30pm 13.1 5.7 4.8 57 3.9 SW 33 46 18 25 1021.7 1021.9 0.0
22/12:00pm 13.2 5.9 4.6 56 4.0 SW 32 41 17 22 1021.9 1022.1 0.0
22/11:32am 13.1 5.3 5.0 58 3.8 SW 35 54 19 29 1021.6 1021.8 0.0
22/11:30am 13.0 4.8 4.9 58 3.8 SW 37 54 20 29 1021.6 1021.8 0.0
22/11:00am 12.9 6.2 5.8 62 3.3 SW 30 41 16 22 1021.8 1022.0 0.0
22/10:30am 11.5 5.2 5.8 68 2.7 SW 28 39 15 21 1021.4 1021.6 0.0
22/10:00am 11.9 4.6 7.0 72 2.4 SW 35 46 19 25 1020.8 1021.0 0.0
22/09:30am 12.0 5.3 7.5 74 2.2 SW 32 43 17 23 1020.8 1021.0 0.0
22/09:00am 11.1 5.6 7.6 79 1.7 WSW 26 37 14 20 1020.5 1020.7 0.0
22/08:30am 10.7 6.3 8.8 88 0.9 WSW 22 33 12 18 1019.9 1020.1 0.0
22/08:00am 10.0 6.0 8.9 93 0.5 WSW 20 32 11 17 1019.4 1019.6 0.0
22/07:30am 9.5 4.7 9.0 97 0.2 WSW 24 33 13 18 1019.0 1019.2 0.0
22/07:00am 9.1 3.9 9.0 99 0.0 WSW 26 35 14 19 1018.7 1018.9 0.0
22/06:30am 9.5 4.5 9.4 99 0.0 WSW 26 35 14 19 1018.3 1018.5 0.0
22/06:00am 10.0 3.9 9.7 98 0.2 WSW 32 43 17 23 1017.9 1018.1 0.0
22/05:30am 10.3 3.9 9.4 94 0.5 WSW 33 43 18 23 1017.7 1017.9 0.0
22/05:00am 10.3 4.5 9.4 94 0.5 WSW 30 41 16 22 1017.7 1017.9 0.0
22/04:30am 10.4 5.0 9.5 94 0.5 WSW 28 39 15 21 1017.5 1017.7 0.0
22/04:00am 9.8 3.5 9.0 95 0.4 W 32 43 17 23 1017.3 1017.5 0.0
22/03:30am 9.8 3.9 9.0 95 0.4 W 30 41 16 22 1017.3 1017.5 0.0
22/03:00am 10.3 4.0 9.1 92 0.6 W 32 43 17 23 1017.4 1017.6 0.0
22/02:30am 9.4 5.4 8.9 97 0.2 W 20 28 11 15 1018.0 1018.2 0.0
22/02:00am 9.6 5.6 9.1 97 0.2 W 20 30 11 16 1018.2 1018.4 0.0
22/01:30am 9.9 5.9 9.1 95 0.4 W 20 28 11 15 1018.3 1018.5 0.0
22/01:00am 10.1 6.3 9.0 93 0.5 W 19 28 10 15 1018.4 1018.6 0.0
22/12:30am 9.9 6.1 9.0 94 0.4 W 19 24 10 13 1018.7 1018.9 0.0
22/12:00am 9.6 6.0 8.5 93 0.5 W 17 22 9 12 1018.6 1018.8 0.0
 
Date/Time
EST
Temp
°C
App
Temp
°C
Dew
Point
°C
Rel
Hum
%
Delta-T
°C
Wind Press
QNH
hPa
Press
MSL
hPa
Rain since
9am
mm
Dir  Spd
km/h
Gust
km/h
Spd
kts
Gust
kts
21/11:30pm 10.2 6.3 8.6 90 0.8 W 19 26 10 14 1018.7 1018.9 0.0
21/11:00pm 10.7 6.8 8.8 88 0.9 W 19 28 10 15 1018.7 1018.9 0.0
21/10:30pm 11.1 7.1 9.0 87 1.1 W 20 30 11 16 1019.0 1019.2 0.0
21/10:00pm 11.6 7.6 9.0 84 1.3 W 20 30 11 16 1018.9 1019.1 0.0
21/09:30pm 11.2 7.7 8.9 86 1.1 W 17 24 9 13 1019.0 1019.2 0.0
21/09:00pm 10.7 6.8 8.5 86 1.1 W 19 24 10 13 1019.5 1019.7 0.0
21/08:30pm 11.5 7.6 8.5 82 1.5 W 19 24 10 13 1019.0 1019.2 0.0
21/08:00pm 11.8 8.3 8.8 82 1.5 W 17 26 9 14 1019.3 1019.5 0.0
21/07:30pm 12.0 8.1 8.8 81 1.6 W 19 24 10 13 1019.4 1019.6 0.0
21/07:00pm 12.3 10.0 9.0 80 1.7 WNW 11 17 6 9 1019.3 1019.5 0.0
21/06:30pm 12.8 10.4 8.7 76 2.1 WNW 11 17 6 9 1019.1 1019.3 0.0
21/06:00pm 12.4 9.8 7.9 74 2.2 W 11 15 6 8 1019.3 1019.5 0.0
21/05:30pm 13.2 10.7 8.1 71 2.5 WSW 11 17 6 9 1019.2 1019.4 0.0
21/05:00pm 14.1 10.0 7.9 66 3.1 WSW 19 28 10 15 1019.0 1019.2 0.0
21/04:30pm 15.2 9.7 7.5 60 3.8 WSW 26 33 14 18 1018.5 1018.7 0.0
21/04:00pm 15.8 10.5 8.3 61 3.8 WSW 26 37 14 20 1018.6 1018.8 0.0
21/03:30pm 16.1 9.5 7.6 57 4.3 WSW 32 39 17 21 1018.9 1019.1 0.0
21/03:00pm 16.1 11.7 10.4 69 3.0 WSW 24 32 13 17 1019.2 1019.4 0.0
21/02:30pm 15.9 10.1 9.3 65 3.4 WSW 30 43 16 23 1019.1 1019.3 0.0
21/02:00pm 16.6 9.8 9.1 61 3.9 WSW 35 43 19 23 1019.2 1019.4 0.0
21/01:30pm 15.9 9.7 10.0 68 3.1 WSW 33 46 18 25 1019.7 1019.9 0.0
21/01:00pm 15.7 11.1 10.9 73 2.6 WSW 26 35 14 19 1019.9 1020.1 0.0
21/12:45pm 15.2 9.1 10.4 73 2.5 WSW 33 52 18 28 1020.1 1020.3 0.0
21/12:30pm 15.3 9.2 10.5 73 2.5 WSW 33 48 18 26 1020.2 1020.4 0.0
21/12:09pm 15.7 9.7 10.2 70 2.9 WSW 32 50 17 27 1020.3 1020.5 0.0
21/12:00pm 15.0 8.3 9.6 70 2.8 WSW 35 54 19 29 1020.4 1020.6 0.0
21/11:53am 14.9 8.7 9.9 72 2.6 WSW 33 54 18 29 1020.4 1020.6 0.0
21/11:30am 14.9 9.5 10.9 77 2.1 WSW 30 41 16 22 1020.5 1020.7 0.0
21/11:08am 13.8 8.5 9.8 77 2.1 WSW 28 46 15 25 1020.7 1020.9 0.0
21/11:00am 13.9 8.0 10.5 80 1.8 WSW 32 43 17 23 1020.8 1021.0 0.0
21/10:30am 13.7 7.5 10.1 79 1.9 WSW 33 48 18 26 1021.0 1021.2 0.0
21/10:00am 13.1 8.1 11.0 87 1.1 W 28 37 15 20 1020.8 1021.0 0.0
21/09:30am 12.7 6.6 10.4 86 1.2 W 33 44 18 24 1020.6 1020.8 0.0
21/09:00am 12.0 6.4 10.2 89 0.9 W 30 43 16 23 1020.5 1020.7 0.0
21/08:30am 11.2 5.6 10.1 93 0.6 W 30 41 16 22 1020.6 1020.8 0.0
21/08:00am 10.6 6.0 9.8 95 0.4 W 24 35 13 19 1020.4 1020.6 0.0
21/07:30am 10.5 6.3 9.7 95 0.4 W 22 33 12 18 1020.1 1020.3 0.0
21/07:00am 10.4 6.5 9.6 95 0.4 W 20 28 11 15 1020.3 1020.5 0.0
21/06:30am 10.3 6.0 9.4 94 0.5 W 22 32 12 17 1020.2 1020.4 0.0
21/06:00am 10.3 6.4 9.5 95 0.4 W 20 32 11 17 1020.4 1020.6 0.0
21/05:30am 10.2 6.5 9.4 95 0.4 W 19 24 10 13 1019.9 1020.1 0.0
21/05:00am 10.2 6.3 9.3 94 0.4 W 20 26 11 14 1019.8 1020.0 0.0
21/04:30am 9.9 5.2 9.1 95 0.4 W 24 32 13 17 1020.1 1020.3 0.0
21/04:00am - - - - - W 22 30 12 16 1020.1 1020.3 0.0
21/03:30am - - - - - W 26 41 14 22 1020.5 1020.7 0.0
21/03:00am - - - - - W 24 32 13 17 1020.8 1021.0 0.0
21/02:30am - - - - - W 22 32 12 17 1021.0 1021.2 0.0
21/02:00am - - - - - WNW 24 39 13 21 1021.0 1021.2 0.0
21/01:30am - - - - - WNW 22 33 12 18 1021.5 1021.7 0.0
21/01:00am - - - - - WNW 22 30 12 16 1021.7 1021.9 0.0
21/12:30am - - - - - W 22 35 12 19 1022.0 1022.2 0.0
21/12:00am - - - - - W 24 32 13 17 1022.1 1022.3 0.0
 
Date/Time
EST
Temp
°C
App
Temp
°C
Dew
Point
°C
Rel
Hum
%
Delta-T
°C
Wind Press
QNH
hPa
Press
MSL
hPa
Rain since
9am
mm
Dir  Spd
km/h
Gust
km/h
Spd
kts
Gust
kts
20/11:30pm - - - - - W 24 35 13 19 1022.2 1022.5 0.0
20/11:00pm - - - - - WNW 19 28 10 15 1022.1 1022.3 0.0
20/10:30pm - - - - - W 20 32 11 17 1022.5 1022.8 0.0
20/10:00pm - - - - - WNW 19 28 10 15 1022.7 1023.0 0.0
20/09:30pm - - - - - W 22 30 12 16 1023.2 1023.4 0.0
20/09:00pm - - - - - WNW 15 30 8 16 1023.2 1023.4 0.0
20/08:30pm - - - - - NW 13 22 7 12 1023.4 1023.6 0.0
20/08:00pm - - - - - NW 15 26 8 14 1023.6 1023.8 0.0
20/07:30pm 11.4 8.7 9.1 86 1.2 WNW 13 19 7 10 1023.9 1024.1 0.0
20/07:00pm - - - - - WNW 15 30 8 16 1023.7 1023.9 0.0
20/06:30pm - - - - - WNW 13 19 7 10 1023.9 1024.1 0.0
20/06:00pm - - - - - NW 11 17 6 9 1024.1 1024.3 0.0
20/05:30pm - - - - - NW 11 17 6 9 1024.3 1024.5 0.0
20/05:00pm - - - - - WNW 11 17 6 9 1024.3 1024.5 0.0
20/04:30pm - - - - - W 13 20 7 11 1024.5 1024.7 0.0
20/04:00pm - - - - - W 17 22 9 12 1024.5 1024.7 0.0
20/03:30pm - - - - - W 17 24 9 13 1024.7 1024.9 0.0
20/03:00pm - - - - - W 17 24 9 13 1024.9 1025.1 0.0
20/02:30pm - - - - - W 19 26 10 14 1025.3 1025.5 0.0
20/02:00pm - - - - - W 20 28 11 15 1025.5 1025.7 0.0
20/01:30pm - - - - - W 17 24 9 13 1025.6 1025.8 0.0
20/01:00pm - - - - - WNW 19 24 10 13 1025.8 1026.0 0.0
20/12:30pm 11.0 7.5 7.1 77 1.9 W 15 24 8 13 1026.2 1026.4 0.0
20/12:00pm 10.7 7.1 6.8 77 1.8 W 15 22 8 12 1026.5 1026.7 0.0
20/11:30am - - - - - W 13 19 7 10 1027.0 1027.2 0.0
20/11:00am - - - - - WNW 13 22 7 12 1027.4 1027.6 0.0
20/10:30am 7.5 4.0 7.4 99 0.0 W 15 20 8 11 1027.7 1027.9 0.0
20/10:00am 6.8 3.2 6.7 99 0.0 W 15 22 8 12 1027.7 1027.9 0.0
20/09:30am 6.0 1.5 5.9 99 0.0 W 19 24 10 13 1027.7 1027.9 0.0
20/09:00am 6.1 1.0 6.0 99 0.0 W 22 32 12 17 1027.8 1028.0 0.2
20/08:30am 5.9 3.6 5.8 99 0.0 W 7 13 4 7 1027.5 1027.7 0.2
20/08:00am 5.0 3.1 4.9 99 0.0 SW 4 6 2 3 1027.3 1027.5 0.2
20/07:30am 4.4 1.4 4.3 99 0.0 W 9 13 5 7 1026.8 1027.0 0.2
20/07:00am 4.0 0.6 3.9 99 0.0 W 11 17 6 9 1026.7 1026.9 0.2
20/06:30am 3.0 -0.2 2.9 99 0.0 W 9 11 5 6 1026.7 1026.9 0.2
20/06:00am 3.4 -0.1 3.3 99 0.0 W 11 15 6 8 1026.5 1026.7 0.2
20/05:30am 3.8 0.3 3.7 99 0.0 W 11 15 6 8 1026.3 1026.5 0.2
20/05:00am 3.4 -0.1 3.3 99 0.0 WNW 11 15 6 8 1026.0 1026.2 0.0
20/04:30am 2.8 -0.5 2.7 99 0.0 W 9 11 5 6 1026.2 1026.4 0.0
20/04:00am 3.0 -0.6 2.9 99 0.0 W 11 13 6 7 1026.3 1026.5 0.0
20/03:30am 3.1 -0.1 3.0 99 0.0 W 9 11 5 6 1026.5 1026.7 0.0
20/03:00am 3.2 0.0 3.1 99 0.0 W 9 11 5 6 1026.8 1027.0 0.0
20/02:30am 4.2 0.8 4.1 99 0.0 W 11 15 6 8 1026.8 1027.0 0.0
20/02:00am 4.5 0.8 4.4 99 0.0 W 13 17 7 9 1026.7 1026.9 0.0
20/01:30am 3.8 0.0 3.7 99 0.0 W 13 15 7 8 1026.7 1026.9 0.0
20/01:00am 4.1 0.3 3.8 98 0.1 W 13 17 7 9 1026.6 1026.8 0.0
20/12:30am 4.2 0.7 3.5 95 0.3 W 11 13 6 7 1026.6 1026.8 0.0
20/12:00am 4.8 1.0 3.9 94 0.4 W 13 17 7 9 1026.6 1026.8 0.0
 
Date/Time
EST
Temp
°C
App
Temp
°C
Dew
Point
°C
Rel
Hum
%
Delta-T
°C
Wind Press
QNH
hPa
Press
MSL
hPa
Rain since
9am
mm
Dir  Spd
km/h
Gust
km/h
Spd
kts
Gust
kts
19/11:30pm 6.0 2.2 4.0 87 0.9 W 13 17 7 9 1026.6 1026.8 0.0
19/11:00pm 7.0 3.2 4.1 82 1.2 WNW 13 19 7 10 1026.6 1026.8 0.0
19/10:30pm 6.7 3.3 4.0 83 1.2 WNW 11 15 6 8 1026.6 1026.8 0.0
19/10:00pm 6.6 3.2 3.9 83 1.2 W 11 15 6 8 1026.5 1026.7 0.0
19/09:30pm 6.4 2.9 3.7 83 1.2 WNW 11 17 6 9 1026.2 1026.4 0.0

Other formats

Comma delimited format used in spreadsheet applications
http://www.bom.gov.au/fwo/IDN60801/IDN60801.94862.axf

JavaScript Object Notation format (JSON) in row-major order
http://www.bom.gov.au/fwo/IDN60801/IDN60801.94862.json

Data quality

Most of these data are generated automatically and are frequently updated. Quality checks on data are not normally performed. It is possible for incorrect values to appear. Refer to information at About Latest Weather Observations and please check the disclaimer before using these data.